WXM80 ListenWXM80 Stop

You find our weather info also at:

UK Metoffice

WeatherCloud

Weather Underground

Northeastern Weather Network

AWEKAS

Citizen Weather Observer Program (CWOP)

HAMweather, WeatherForYou, PWS Weather


Weather Underground History page Text

Daily Summary for November 20, 2016 Units:  English    Metric   Both
« Previous Day
Next Day »
Daily Weekly Monthly Yearly Custom
  High: Low: Average:
Temperature: 52.6 °F 35.7 °F 40.4 °F
Dew Point: 50.9 °F 27.0 °F 33.3 °F
Humidity: 95 % 60 % 76 %
Wind Speed: 15.7 mph 0.1 mph 9.5 mph
Wind Gust: 32.0 mph - -
Wind:- - West
Pressure: 29.53 in 29.44 in -
Precipitation: 0.49 in    
Historical Graphs
 
 
Tabular Data for November 20, 2016
Time Temperature Dew Point Pressure Wind Wind Speed Wind Gust Humidity Rainfall Rate (Hourly)
00:00 52.6 °F 50.9 °F 29.44 in ESE 0.1 mph 3.5 mph 94 % 0.00 in
00:05 52.6 °F 50.9 °F 29.45 in SW 4.0 mph 11.5 mph 94 % 0.00 in
00:10 51.9 °F 49.4 °F 29.44 in SW 15.5 mph 26.0 mph 91 % 0.00 in
00:15 50.1 °F 46.7 °F 29.46 in West 15.7 mph 27.6 mph 88 % 0.03 in
00:20 48.8 °F 45.4 °F 29.46 in West 10.0 mph 23.0 mph 88 % 0.00 in
00:25 47.7 °F 44.3 °F 29.47 in West 9.0 mph 21.0 mph 88 % 0.01 in
00:30 46.6 °F 43.5 °F 29.48 in SSW 7.8 mph 17.3 mph 89 % 0.07 in
00:35 45.7 °F 42.7 °F 29.49 in West 7.0 mph 17.0 mph 89 % 0.00 in
00:40 44.8 °F 41.7 °F 29.49 in West 10.0 mph 22.0 mph 89 % 0.01 in
00:45 43.8 °F 40.8 °F 29.49 in West 12.0 mph 29.0 mph 89 % 0.01 in
00:50 42.9 °F 40.2 °F 29.49 in WSW 10.0 mph 24.0 mph 90 % 0.00 in
00:55 42.4 °F 40.0 °F 29.49 in WSW 9.0 mph 25.0 mph 91 % 0.01 in
01:00 41.9 °F 39.5 °F 29.49 in SW 10.1 mph 17.3 mph 91 % 0.21 in
01:05 41.5 °F 39.3 °F 29.49 in South 10.6 mph 19.6 mph 92 % 0.24 in
01:10 41.3 °F 39.2 °F 29.51 in WNW 9.2 mph 16.1 mph 92 % 0.27 in
01:15 41.2 °F 39.3 °F 29.50 in West 7.3 mph 16.0 mph 93 % 0.26 in
01:20 41.1 °F 39.2 °F 29.48 in North 7.2 mph 13.8 mph 93 % 0.26 in
01:26 41.1 °F 39.2 °F 29.49 in WNW 11.5 mph 19.6 mph 93 % 0.26 in
01:31 41.0 °F 39.4 °F 29.49 in WNW 11.6 mph 23.0 mph 94 % 0.26 in
01:36 40.9 °F 39.3 °F 29.48 in West 8.1 mph 18.4 mph 94 % 0.26 in
01:41 40.9 °F 39.3 °F 29.49 in WSW 7.3 mph 10.4 mph 94 % 0.25 in
01:46 40.8 °F 39.2 °F 29.51 in South 8.9 mph 12.7 mph 94 % 0.20 in
01:51 40.7 °F 39.1 °F 29.50 in WNW 6.9 mph 10.4 mph 94 % 0.20 in
01:56 40.7 °F 39.1 °F 29.50 in WNW 5.2 mph 12.0 mph 94 % 0.20 in
02:01 40.7 °F 39.4 °F 29.49 in SW 5.4 mph 10.4 mph 95 % 0.19 in
02:06 40.7 °F 39.4 °F 29.49 in NNW 7.3 mph 15.0 mph 95 % 0.15 in
02:11 40.7 °F 39.4 °F 29.48 in WNW 6.1 mph 11.5 mph 95 % 0.13 in
02:16 40.8 °F 39.5 °F 29.48 in NW 5.8 mph 10.4 mph 95 % 0.12 in
02:22 40.9 °F 39.6 °F 29.47 in WSW 4.5 mph 10.4 mph 95 % 0.10 in
02:27 41.0 °F 39.7 °F 29.46 in NNW 7.5 mph 11.5 mph 95 % 0.10 in
02:32 41.0 °F 39.7 °F 29.46 in NNW 8.2 mph 13.8 mph 95 % 0.08 in
02:37 41.0 °F 39.7 °F 29.45 in North 3.9 mph 8.1 mph 95 % 0.07 in
02:42 41.1 °F 39.8 °F 29.44 in North 9.8 mph 15.0 mph 95 % 0.06 in
02:47 41.1 °F 39.8 °F 29.44 in NNW 3.9 mph 10.4 mph 95 % 0.05 in
02:52 41.1 °F 39.8 °F 29.44 in NNW 4.7 mph 11.5 mph 95 % 0.04 in
03:02 40.9 °F 39.6 °F 29.45 in West 6.8 mph 16.1 mph 95 % 0.03 in
03:07 40.9 °F 39.6 °F 29.47 in West 6.2 mph 11.5 mph 95 % 0.04 in
03:13 40.8 °F 39.5 °F 29.47 in West 8.1 mph 17.3 mph 95 % 0.05 in
03:18 40.6 °F 39.0 °F 29.47 in West 11.6 mph 17.0 mph 94 % 0.05 in
03:28 39.3 °F 37.4 °F 29.47 in WNW 9.7 mph 19.6 mph 93 % 0.05 in
03:33 38.8 °F 36.9 °F 29.47 in WNW 6.0 mph 11.5 mph 93 % 0.05 in
03:38 38.4 °F 36.6 °F 29.47 in SW 10.4 mph 13.8 mph 93 % 0.05 in
03:43 38.1 °F 36.3 °F 29.48 in West 11.4 mph 20.0 mph 93 % 0.05 in
03:48 38.1 °F 36.5 °F 29.48 in WSW 8.6 mph 16.1 mph 94 % 0.05 in
03:53 38.1 °F 36.5 °F 29.49 in West 8.1 mph 11.5 mph 94 % 0.06 in
04:04 38.2 °F 36.6 °F 29.49 in WSW 10.1 mph 21.0 mph 94 % 0.04 in
04:09 38.3 °F 37.0 °F 29.49 in WNW 8.3 mph 15.0 mph 95 % 0.04 in
04:14 38.3 °F 37.0 °F 29.50 in West 11.1 mph 13.0 mph 95 % 0.03 in
04:19 38.3 °F 37.0 °F 29.49 in WNW 9.8 mph 17.3 mph 95 % 0.02 in
04:24 38.2 °F 36.6 °F 29.49 in SW 7.8 mph 11.5 mph 94 % 0.02 in
04:29 38.2 °F 36.6 °F 29.49 in WSW 7.2 mph 18.4 mph 94 % 0.01 in
04:34 38.2 °F 36.6 °F 29.49 in WNW 11.7 mph 19.6 mph 94 % 0.01 in
04:39 38.3 °F 36.7 °F 29.49 in West 10.2 mph 18.4 mph 94 % 0.01 in
04:44 38.3 °F 36.7 °F 29.49 in WSW 9.0 mph 17.3 mph 94 % 0.01 in
04:49 38.4 °F 36.8 °F 29.49 in SW 8.5 mph 19.6 mph 94 % 0.01 in
04:55 38.4 °F 36.8 °F 29.49 in WNW 8.5 mph 15.0 mph 94 % 0.00 in
05:00 38.5 °F 36.9 °F 29.50 in WSW 11.8 mph 19.6 mph 94 % 0.00 in
05:05 38.5 °F 36.9 °F 29.50 in West 9.2 mph 25.3 mph 94 % 0.00 in
05:10 38.5 °F 36.9 °F 29.49 in SW 12.2 mph 20.0 mph 94 % 0.00 in
05:15 38.5 °F 36.7 °F 29.49 in SW 4.9 mph 13.8 mph 93 % 0.00 in
05:20 38.6 °F 36.8 °F 29.50 in WSW 10.3 mph 16.1 mph 93 % 0.00 in
05:25 38.7 °F 36.9 °F 29.49 in West 5.0 mph 18.0 mph 93 % 0.00 in
05:30 38.8 °F 36.6 °F 29.50 in West 10.0 mph 20.0 mph 92 % 0.00 in
05:35 38.9 °F 36.7 °F 29.50 in WSW 9.0 mph 23.0 mph 92 % 0.00 in
05:40 38.9 °F 36.8 °F 29.50 in WSW 10.0 mph 20.0 mph 92 % 0.00 in
05:45 39.0 °F 36.6 °F 29.50 in West 12.0 mph 24.0 mph 91 % 0.00 in
05:50 39.1 °F 36.4 °F 29.50 in West 12.0 mph 20.0 mph 90 % 0.00 in
05:55 39.2 °F 36.2 °F 29.50 in WSW 10.0 mph 24.0 mph 89 % 0.00 in
06:00 39.3 °F 36.3 °F 29.49 in WSW 8.2 mph 15.0 mph 89 % 0.00 in
06:05 39.4 °F 36.1 °F 29.50 in West 12.0 mph 24.0 mph 88 % 0.00 in
06:10 39.5 °F 36.2 °F 29.50 in West 8.0 mph 18.0 mph 88 % 0.00 in
06:15 39.6 °F 36.0 °F 29.51 in West 9.0 mph 24.0 mph 87 % 0.00 in
06:20 39.6 °F 36.0 °F 29.51 in WSW 7.1 mph 15.0 mph 87 % 0.00 in
06:25 39.6 °F 35.8 °F 29.51 in WSW 8.0 mph 20.0 mph 86 % 0.00 in
06:30 39.5 °F 35.7 °F 29.51 in West 6.0 mph 23.0 mph 86 % 0.00 in
06:35 39.5 °F 35.4 °F 29.51 in West 8.0 mph 20.0 mph 85 % 0.00 in
06:40 39.5 °F 34.8 °F 29.52 in West 9.0 mph 20.0 mph 83 % 0.00 in
06:45 39.5 °F 34.7 °F 29.52 in West 10.0 mph 18.0 mph 83 % 0.00 in
06:50 39.5 °F 34.8 °F 29.51 in WSW 8.7 mph 17.0 mph 83 % 0.00 in
06:55 39.5 °F 34.7 °F 29.52 in WNW 10.0 mph 21.0 mph 83 % 0.00 in
07:00 39.5 °F 34.2 °F 29.52 in WNW 12.8 mph 13.8 mph 81 % 0.00 in
07:05 39.5 °F 33.8 °F 29.52 in West 11.7 mph 20.0 mph 80 % 0.00 in
07:10 39.6 °F 33.9 °F 29.52 in West 9.4 mph 13.8 mph 80 % 0.00 in
07:15 39.7 °F 33.7 °F 29.52 in WNW 10.3 mph 19.6 mph 79 % 0.00 in
07:20 39.7 °F 33.4 °F 29.52 in NW 13.3 mph 23.0 mph 78 % 0.00 in
07:25 39.8 °F 33.5 °F 29.52 in SE 6.9 mph 12.7 mph 78 % 0.00 in
07:31 39.8 °F 33.2 °F 29.52 in West 10.7 mph 17.3 mph 77 % 0.00 in
07:36 39.8 °F 33.2 °F 29.52 in NNW 10.7 mph 17.3 mph 77 % 0.00 in
07:41 39.9 °F 32.9 °F 29.52 in NNW 10.0 mph 20.7 mph 76 % 0.00 in
07:46 40.0 °F 33.0 °F 29.52 in WNW 9.3 mph 23.0 mph 76 % 0.00 in
07:51 40.1 °F 32.5 °F 29.52 in WNW 12.7 mph 24.0 mph 74 % 0.00 in
07:56 40.1 °F 32.5 °F 29.52 in NW 12.0 mph 24.2 mph 74 % 0.00 in
08:01 40.2 °F 32.6 °F 29.52 in West 9.3 mph 19.6 mph 74 % 0.00 in
08:06 40.2 °F 32.9 °F 29.52 in West 4.6 mph 11.5 mph 75 % 0.00 in
08:11 40.2 °F 32.6 °F 29.52 in West 8.2 mph 18.4 mph 74 % 0.01 in
08:16 40.2 °F 32.9 °F 29.52 in WSW 5.5 mph 9.2 mph 75 % 0.01 in
08:22 40.3 °F 33.3 °F 29.52 in WSW 9.1 mph 17.3 mph 76 % 0.01 in
08:27 40.4 °F 33.1 °F 29.51 in SSW 7.3 mph 12.7 mph 75 % 0.01 in
08:32 40.4 °F 33.4 °F 29.51 in WNW 4.6 mph 10.4 mph 76 % 0.01 in
08:37 40.4 °F 33.1 °F 29.51 in WNW 12.6 mph 20.7 mph 75 % 0.01 in
08:42 40.4 °F 33.1 °F 29.51 in WSW 11.4 mph 13.0 mph 75 % 0.01 in
08:47 40.4 °F 33.1 °F 29.52 in NW 8.0 mph 17.3 mph 75 % 0.01 in
08:52 40.4 °F 33.1 °F 29.51 in West 6.4 mph 13.8 mph 75 % 0.01 in
08:57 40.5 °F 32.5 °F 29.51 in WSW 9.0 mph 18.4 mph 73 % 0.01 in
09:02 40.6 °F 32.6 °F 29.51 in West 5.9 mph 11.5 mph 73 % 0.01 in
09:07 40.8 °F 33.2 °F 29.51 in West 8.0 mph 13.8 mph 74 % 0.01 in
09:13 40.9 °F 32.2 °F 29.51 in WSW 9.8 mph 19.6 mph 71 % 0.00 in
09:18 41.0 °F 32.7 °F 29.51 in West 10.3 mph 12.0 mph 72 % 0.00 in
09:23 41.0 °F 32.3 °F 29.51 in West 6.3 mph 17.3 mph 71 % 0.00 in
09:33 41.0 °F 32.0 °F 29.51 in West 10.6 mph 21.9 mph 70 % 0.00 in
09:38 41.0 °F 32.0 °F 29.51 in West 6.1 mph 11.5 mph 70 % 0.00 in
09:43 41.0 °F 31.6 °F 29.51 in WNW 13.0 mph 20.7 mph 69 % 0.00 in
09:48 41.0 °F 31.2 °F 29.51 in WSW 7.6 mph 12.7 mph 68 % 0.00 in
09:53 41.1 °F 31.3 °F 29.51 in WNW 10.3 mph 19.6 mph 68 % 0.00 in
09:58 41.1 °F 31.3 °F 29.51 in West 14.4 mph 23.0 mph 68 % 0.00 in
10:04 41.3 °F 31.5 °F 29.51 in WSW 8.9 mph 23.0 mph 68 % 0.00 in
10:09 41.4 °F 32.0 °F 29.51 in WSW 7.5 mph 16.0 mph 69 % 0.00 in
10:14 41.4 °F 31.6 °F 29.51 in WSW 5.5 mph 11.5 mph 68 % 0.00 in
10:19 41.5 °F 31.7 °F 29.50 in West 7.3 mph 13.8 mph 68 % 0.00 in
10:24 41.7 °F 31.5 °F 29.50 in WSW 8.3 mph 12.7 mph 67 % 0.00 in
10:29 41.8 °F 31.3 °F 29.50 in WNW 11.0 mph 17.3 mph 66 % 0.00 in
10:34 41.9 °F 31.7 °F 29.50 in WSW 11.0 mph 23.0 mph 67 % 0.00 in
10:39 41.9 °F 31.4 °F 29.49 in West 7.3 mph 19.6 mph 66 % 0.00 in
10:44 42.0 °F 32.2 °F 29.50 in NW 4.2 mph 19.6 mph 68 % 0.00 in
10:50 42.1 °F 32.3 °F 29.49 in WNW 10.2 mph 17.3 mph 68 % 0.00 in
10:55 42.1 °F 32.3 °F 29.49 in West 7.9 mph 11.5 mph 68 % 0.00 in
11:00 42.1 °F 32.7 °F 29.49 in NW 5.8 mph 11.5 mph 69 % 0.00 in
11:05 42.1 °F 32.3 °F 29.49 in WSW 10.0 mph 17.0 mph 68 % 0.00 in
11:10 42.0 °F 32.2 °F 29.48 in NW 9.5 mph 16.0 mph 68 % 0.00 in
11:15 42.1 °F 32.3 °F 29.48 in WSW 10.0 mph 18.0 mph 68 % 0.00 in
11:20 42.0 °F 32.6 °F 29.48 in West 9.6 mph 13.0 mph 69 % 0.00 in
11:25 41.9 °F 32.5 °F 29.48 in WSW 5.9 mph 11.5 mph 69 % 0.00 in
11:35 42.4 °F 32.9 °F 29.47 in WSW 10.0 mph 18.4 mph 69 % 0.00 in
11:40 42.7 °F 33.2 °F 29.47 in West 7.3 mph 17.3 mph 69 % 0.00 in
11:45 42.9 °F 33.1 °F 29.47 in SW 5.4 mph 15.0 mph 68 % 0.00 in
11:51 43.1 °F 33.6 °F 29.47 in WSW 10.0 mph 16.1 mph 69 % 0.00 in
11:56 43.2 °F 33.7 °F 29.47 in WNW 6.7 mph 12.0 mph 69 % 0.00 in
12:01 43.2 °F 33.3 °F 29.47 in West 7.7 mph 26.5 mph 68 % 0.00 in
12:06 43.0 °F 33.2 °F 29.47 in West 9.3 mph 20.7 mph 68 % 0.00 in
12:11 42.7 °F 33.2 °F 29.47 in WNW 10.1 mph 13.0 mph 69 % 0.00 in
12:16 42.6 °F 33.1 °F 29.46 in SW 6.7 mph 16.1 mph 69 % 0.00 in
12:21 42.4 °F 33.3 °F 29.46 in WNW 7.2 mph 17.3 mph 70 % 0.00 in
12:26 42.4 °F 32.9 °F 29.46 in SW 9.9 mph 19.6 mph 69 % 0.00 in
12:31 42.3 °F 32.8 °F 29.46 in West 6.4 mph 17.3 mph 69 % 0.00 in
12:36 42.4 °F 33.3 °F 29.46 in SSW 10.7 mph 15.0 mph 70 % 0.00 in
12:41 42.7 °F 33.9 °F 29.46 in SW 7.9 mph 19.0 mph 71 % 0.00 in
12:46 42.7 °F 33.6 °F 29.46 in West 10.2 mph 20.7 mph 70 % 0.00 in
12:51 42.7 °F 33.9 °F 29.46 in West 13.6 mph 28.8 mph 71 % 0.00 in
12:57 42.6 °F 33.9 °F 29.46 in SW 11.9 mph 16.0 mph 71 % 0.00 in
13:02 42.7 °F 33.9 °F 29.46 in SW 9.5 mph 15.0 mph 71 % 0.00 in
13:07 42.7 °F 33.9 °F 29.46 in WSW 6.0 mph 11.5 mph 71 % 0.00 in
13:12 42.8 °F 34.0 °F 29.45 in SSW 8.2 mph 19.6 mph 71 % 0.00 in
13:17 42.9 °F 34.1 °F 29.45 in NW 12.5 mph 18.4 mph 71 % 0.00 in
13:22 42.8 °F 34.4 °F 29.45 in WSW 11.3 mph 23.0 mph 72 % 0.00 in
13:27 42.7 °F 34.3 °F 29.45 in NW 12.2 mph 19.6 mph 72 % 0.00 in
13:32 42.5 °F 34.1 °F 29.45 in North 12.2 mph 19.6 mph 72 % 0.00 in
13:37 42.4 °F 34.7 °F 29.45 in West 6.3 mph 10.4 mph 74 % 0.00 in
13:42 42.3 °F 34.3 °F 29.45 in SW 11.9 mph 18.4 mph 73 % 0.00 in
13:47 42.2 °F 34.5 °F 29.45 in SW 12.6 mph 21.9 mph 74 % 0.00 in
13:53 42.2 °F 34.2 °F 29.45 in West 11.5 mph 23.0 mph 73 % 0.00 in
13:58 42.2 °F 33.8 °F 29.45 in West 11.5 mph 23.0 mph 72 % 0.00 in
14:03 42.3 °F 33.6 °F 29.45 in SW 10.1 mph 19.6 mph 71 % 0.00 in
14:08 42.3 °F 33.9 °F 29.45 in West 8.8 mph 18.4 mph 72 % 0.00 in
14:13 42.4 °F 33.3 °F 29.44 in WSW 9.6 mph 23.0 mph 70 % 0.00 in
14:18 42.3 °F 33.2 °F 29.45 in West 11.2 mph 19.6 mph 70 % 0.00 in
14:23 42.4 °F 34.0 °F 29.45 in WSW 9.3 mph 19.6 mph 72 % 0.00 in
14:28 42.3 °F 34.3 °F 29.45 in SW 12.6 mph 26.5 mph 73 % 0.00 in
14:33 41.8 °F 35.1 °F 29.46 in SW 9.7 mph 21.9 mph 77 % 0.00 in
14:38 41.4 °F 35.4 °F 29.46 in WSW 10.3 mph 27.0 mph 79 % 0.00 in
14:44 41.0 °F 34.0 °F 29.46 in West 9.9 mph 18.4 mph 76 % 0.00 in
14:54 40.7 °F 34.4 °F 29.46 in SW 12.1 mph 21.0 mph 78 % 0.00 in
14:59 40.6 °F 34.9 °F 29.46 in SSW 6.2 mph 13.8 mph 80 % 0.00 in
15:04 40.6 °F 34.6 °F 29.46 in WSW 9.1 mph 19.6 mph 79 % 0.00 in
15:09 40.6 °F 34.3 °F 29.46 in WSW 10.1 mph 18.4 mph 78 % 0.00 in
15:14 40.7 °F 34.0 °F 29.46 in WSW 12.4 mph 26.5 mph 77 % 0.00 in
15:19 40.8 °F 34.1 °F 29.46 in WSW 10.8 mph 17.3 mph 77 % 0.00 in
15:24 41.0 °F 34.3 °F 29.47 in West 9.2 mph 15.0 mph 77 % 0.00 in
15:29 41.1 °F 34.4 °F 29.47 in WNW 9.0 mph 21.0 mph 77 % 0.00 in
15:35 41.1 °F 33.4 °F 29.46 in West 12.6 mph 20.7 mph 74 % 0.00 in
15:45 41.1 °F 32.4 °F 29.47 in WSW 11.5 mph 23.0 mph 71 % 0.00 in
15:50 41.1 °F 31.3 °F 29.47 in NW 10.4 mph 18.4 mph 68 % 0.00 in
15:55 41.2 °F 31.1 °F 29.47 in WNW 12.6 mph 19.6 mph 67 % 0.00 in
16:00 41.2 °F 30.7 °F 29.47 in WSW 7.8 mph 19.6 mph 66 % 0.00 in
16:05 41.2 °F 30.7 °F 29.48 in WNW 9.0 mph 26.0 mph 66 % 0.00 in
16:10 41.1 °F 29.8 °F 29.47 in West 13.0 mph 29.0 mph 64 % 0.00 in
16:15 41.1 °F 29.8 °F 29.48 in West 10.0 mph 24.0 mph 64 % 0.00 in
16:20 41.0 °F 29.4 °F 29.48 in West 9.0 mph 23.0 mph 63 % 0.00 in
16:25 40.9 °F 29.3 °F 29.48 in West 10.0 mph 23.0 mph 63 % 0.00 in
16:30 40.9 °F 28.9 °F 29.48 in West 10.0 mph 23.0 mph 62 % 0.00 in
16:35 40.8 °F 29.2 °F 29.48 in WNW 15.0 mph 27.0 mph 63 % 0.00 in
16:40 40.7 °F 28.3 °F 29.48 in West 10.0 mph 22.0 mph 61 % 0.00 in
16:45 40.6 °F 27.8 °F 29.48 in NW 15.2 mph 25.3 mph 60 % 0.00 in
16:50 40.6 °F 28.2 °F 29.49 in West 10.0 mph 25.0 mph 61 % 0.00 in
16:55 40.5 °F 28.1 °F 29.49 in WSW 15.0 mph 24.0 mph 61 % 0.00 in
17:00 40.5 °F 28.1 °F 29.49 in WNW 11.9 mph 23.0 mph 61 % 0.00 in
17:05 40.5 °F 28.1 °F 29.49 in NW 9.6 mph 19.6 mph 61 % 0.00 in
17:10 40.4 °F 27.6 °F 29.49 in SSW 9.2 mph 25.3 mph 60 % 0.00 in
17:15 40.4 °F 28.8 °F 29.49 in WSW 12.2 mph 19.6 mph 63 % 0.00 in
17:20 40.4 °F 28.4 °F 29.50 in West 9.6 mph 23.0 mph 62 % 0.00 in
17:26 40.4 °F 28.4 °F 29.50 in West 8.0 mph 17.0 mph 62 % 0.00 in
17:31 40.4 °F 28.8 °F 29.50 in West 8.4 mph 14.0 mph 63 % 0.00 in
17:36 40.4 °F 28.8 °F 29.50 in West 11.9 mph 19.6 mph 63 % 0.00 in
17:41 40.2 °F 27.8 °F 29.50 in NW 13.7 mph 26.5 mph 61 % 0.00 in
17:46 40.1 °F 28.1 °F 29.50 in West 13.5 mph 19.6 mph 62 % 0.00 in
17:51 40.1 °F 28.9 °F 29.50 in SW 13.0 mph 16.1 mph 64 % 0.00 in
17:56 40.1 °F 28.5 °F 29.50 in WSW 15.2 mph 27.6 mph 63 % 0.00 in
18:01 40.0 °F 27.6 °F 29.50 in WNW 7.3 mph 18.4 mph 61 % 0.00 in
18:11 39.9 °F 27.9 °F 29.50 in West 11.8 mph 21.9 mph 62 % 0.00 in
18:17 39.8 °F 28.2 °F 29.50 in WSW 12.0 mph 24.0 mph 63 % 0.00 in
18:22 39.8 °F 28.2 °F 29.50 in WSW 14.3 mph 18.4 mph 63 % 0.00 in
18:27 39.8 °F 27.8 °F 29.49 in NW 10.3 mph 15.0 mph 62 % 0.00 in
18:32 39.7 °F 28.1 °F 29.50 in West 11.2 mph 20.0 mph 63 % 0.00 in
18:42 39.7 °F 28.5 °F 29.50 in NW 11.7 mph 19.6 mph 64 % 0.00 in
18:47 39.7 °F 28.5 °F 29.50 in West 10.8 mph 22.0 mph 64 % 0.00 in
18:57 39.7 °F 28.1 °F 29.51 in NW 12.2 mph 22.0 mph 63 % 0.00 in
19:02 39.7 °F 28.1 °F 29.50 in West 11.3 mph 21.9 mph 63 % 0.00 in
19:08 39.7 °F 28.9 °F 29.50 in WNW 11.7 mph 16.1 mph 65 % 0.00 in
19:13 39.6 °F 29.5 °F 29.51 in WNW 9.6 mph 18.0 mph 67 % 0.00 in
19:18 39.4 °F 29.0 °F 29.51 in SW 10.7 mph 20.7 mph 66 % 0.00 in
19:23 39.2 °F 29.5 °F 29.51 in SSW 6.0 mph 16.1 mph 68 % 0.00 in
19:28 39.1 °F 30.1 °F 29.51 in NW 12.8 mph 16.0 mph 70 % 0.00 in
19:33 39.0 °F 30.4 °F 29.51 in NW 6.5 mph 13.0 mph 71 % 0.00 in
19:38 38.8 °F 30.2 °F 29.51 in WSW 14.9 mph 20.7 mph 71 % 0.00 in
19:43 38.8 °F 30.2 °F 29.51 in WSW 8.8 mph 15.0 mph 71 % 0.00 in
19:48 38.7 °F 30.4 °F 29.51 in WNW 7.6 mph 16.1 mph 72 % 0.00 in
19:53 38.7 °F 30.1 °F 29.51 in WNW 5.6 mph 15.0 mph 71 % 0.00 in
19:59 38.7 °F 30.1 °F 29.51 in WNW 5.9 mph 15.0 mph 71 % 0.00 in
20:04 38.6 °F 30.4 °F 29.51 in SW 9.0 mph 17.0 mph 72 % 0.00 in
20:09 38.6 °F 30.0 °F 29.51 in WSW 6.9 mph 11.5 mph 71 % 0.00 in
20:14 38.7 °F 29.8 °F 29.51 in West 14.9 mph 24.2 mph 70 % 0.00 in
20:19 38.8 °F 29.8 °F 29.52 in NW 9.0 mph 19.0 mph 70 % 0.00 in
20:24 38.8 °F 29.8 °F 29.52 in WNW 6.8 mph 19.6 mph 70 % 0.00 in
20:29 38.9 °F 29.6 °F 29.51 in North 11.1 mph 19.6 mph 69 % 0.00 in
20:34 38.9 °F 29.9 °F 29.52 in NW 6.7 mph 13.8 mph 70 % 0.00 in
20:39 38.8 °F 29.8 °F 29.51 in SW 10.0 mph 15.0 mph 70 % 0.00 in
20:44 38.8 °F 29.1 °F 29.51 in WSW 4.5 mph 11.5 mph 68 % 0.00 in
20:50 38.8 °F 28.4 °F 29.51 in WNW 11.4 mph 23.0 mph 66 % 0.00 in
20:55 38.8 °F 28.8 °F 29.52 in West 13.6 mph 26.5 mph 67 % 0.00 in
21:00 38.8 °F 28.4 °F 29.52 in WSW 13.1 mph 26.5 mph 66 % 0.00 in
21:05 38.7 °F 28.3 °F 29.52 in NW 14.4 mph 19.6 mph 66 % 0.00 in
21:10 38.7 °F 29.0 °F 29.52 in West 9.2 mph 21.0 mph 68 % 0.00 in
21:15 38.6 °F 28.9 °F 29.53 in WNW 10.8 mph 22.0 mph 68 % 0.00 in
21:20 38.6 °F 28.9 °F 29.52 in WNW 13.3 mph 19.6 mph 68 % 0.00 in
21:25 38.5 °F 28.5 °F 29.52 in WNW 13.0 mph 31.0 mph 67 % 0.00 in
21:30 38.5 °F 29.2 °F 29.53 in WNW 11.5 mph 21.9 mph 69 % 0.00 in
21:35 38.4 °F 28.4 °F 29.52 in WNW 1.6 mph 19.6 mph 67 % 0.00 in
21:40 38.3 °F 28.3 °F 29.53 in West 8.0 mph 27.0 mph 67 % 0.00 in
21:45 38.1 °F 28.5 °F 29.52 in West 13.0 mph 28.0 mph 68 % 0.00 in
21:50 37.9 °F 28.3 °F 29.52 in West 10.0 mph 20.0 mph 68 % 0.00 in
21:55 37.9 °F 28.6 °F 29.52 in West 8.0 mph 20.0 mph 69 % 0.00 in
22:00 37.8 °F 28.2 °F 29.53 in West 11.0 mph 18.4 mph 68 % 0.00 in
22:05 37.8 °F 27.8 °F 29.53 in WSW 14.0 mph 26.0 mph 67 % 0.00 in
22:10 37.8 °F 27.8 °F 29.52 in West 10.0 mph 20.0 mph 67 % 0.00 in
22:15 37.7 °F 28.1 °F 29.53 in West 8.0 mph 25.0 mph 68 % 0.00 in
22:20 37.7 °F 28.1 °F 29.52 in West 10.0 mph 22.0 mph 68 % 0.00 in
22:25 37.7 °F 27.4 °F 29.53 in West 8.0 mph 20.0 mph 66 % 0.00 in
22:30 37.7 °F 27.0 °F 29.53 in WSW 12.0 mph 23.0 mph 65 % 0.00 in
22:35 37.7 °F 27.0 °F 29.52 in West 10.0 mph 20.0 mph 65 % 0.00 in
22:40 37.7 °F 27.4 °F 29.53 in West 8.0 mph 20.0 mph 66 % 0.00 in
22:45 37.7 °F 27.0 °F 29.52 in West 6.0 mph 20.0 mph 65 % 0.00 in
22:50 37.7 °F 27.7 °F 29.53 in West 12.0 mph 21.0 mph 67 % 0.00 in
22:55 37.7 °F 28.1 °F 29.53 in West 8.0 mph 17.0 mph 68 % 0.00 in
23:00 37.7 °F 27.4 °F 29.52 in West 10.0 mph 11.0 mph 66 % 0.00 in
23:05 37.6 °F 28.0 °F 29.52 in West 7.0 mph 21.0 mph 68 % 0.00 in
23:10 37.5 °F 27.9 °F 29.52 in West 10.0 mph 22.0 mph 68 % 0.00 in
23:15 37.4 °F 27.8 °F 29.53 in West 10.0 mph 24.0 mph 68 % 0.00 in
23:20 37.3 °F 27.7 °F 29.53 in WNW 13.0 mph 32.0 mph 68 % 0.00 in
23:25 37.1 °F 28.2 °F 29.53 in West 9.0 mph 30.0 mph 70 % 0.00 in
23:30 36.6 °F 29.1 °F 29.53 in West 13.0 mph 25.0 mph 74 % 0.00 in
23:35 36.3 °F 29.5 °F 29.53 in WNW 9.0 mph 25.0 mph 76 % 0.00 in
23:40 36.2 °F 29.7 °F 29.53 in WNW 8.0 mph 21.0 mph 77 % 0.00 in
23:45 36.1 °F 29.9 °F 29.53 in West 9.0 mph 20.0 mph 78 % 0.00 in
23:50 36.0 °F 30.1 °F 29.53 in NNW 8.8 mph 11.5 mph 79 % 0.00 in
23:55 35.7 °F 30.4 °F 29.53 in West 9.0 mph 18.0 mph 81 % 0.00 in
Crab Meadow Weather
Compliments of Weather Underground - 2.75 mb

Script developed by  Jim McMurry - jmcmurry@mwt.net Adapted for the template by  Wim van der Kuil - Leuven-Template.eu

Astronomy: The Sun is around 4.5 billion years old.